Página principal
METAR-TAF:

METAR-TAF

Aeroportos :

Conacri, Guiné

latitude: 09-34N, longitude: 013-37W, altura: 26 m

Observação actual do tempo

O boletim foi feito há 3 horas e 30 minutos, às 00:00 UTC
Vento calmo
Temperatura 27°C
Humidade 84%
Pressão 1014 hPa
Visibilidade: 5000 m
Poucas nuvensa uma altura de 1500 ft
Nuvens fragmentadasa uma altura de 11000 ft
neblina

METAR: GUCY 140000Z 00000KT 5000 BR FEW015 BKN110 27/24 Q1014 NOSIG

Hora: 03:30 (03:30 UTC)

Previsão

O boletim foi feito há 4 horas e 30 minutos, às 23:00 UTC
Previsão válida de 14 às 00 UTC a 15 às 06 UTC
Vento 6 kt de noroeste
Visibilidade: 5000 m
bruma
Probabilidade 30% :
Temporariamente
de 14 às 05 UTC a 14 às 10 UTC
Vento 2 kt com direcção variável
Visibilidade: 3000 m
Poucas nuvensa uma altura de 1500 ft
neblina

TAF: GUCY 132300Z 1400/1506 32006KT 5000 HZ NSC PROB30 TEMPO 1405/1410 VRB02KT 3000 BR FEW015

Observações e previsões do tempo de mais de 4000 aeroportos (mensagens METAR e TAF).

As estações disponíveis são os pontos amarelos e vermelhos sobre o mapa.

Mova o rato sobre o mapa para ver o nome da estação.

Depois clique no ponto para visualizar as observações e previsões meteorológicas.

Para alterar o mapa : clique nos botões verdes com uma cruz preta para aumentar o zoom; no botão verde com uma pitada de zoom; ou nas setas verdes para mapas adjacentes.


METAR-TAF: